Time;durP1;ratioP1;P1;durP2;ratioP2;P2;SDS_P1;SDS_P2;PMS_P1;PMS_P2;Temp;Humidity;BMP_temperature;BMP_pressure;BME280_temperature;BME280_humidity;BME280_pressure;Samples;Min_cycle;Max_cycle;Signal;HPM_P1;HPM_P2
2022/10/16 00:01:14;;;;;;;27.67;18.47;;;;;;;8.79;100.00;97938.81;6082480;29;20251;-67
2022/10/16 00:04:16;;;;;;;28.23;20.20;;;;;;;8.79;100.00;97943.22;6085324;29;20829;-68
2022/10/16 00:07:18;;;;;;;28.70;20.47;;;;;;;8.77;100.00;97943.34;6082563;29;20712;-67
2022/10/16 00:10:20;;;;;;;28.70;19.93;;;;;;;8.79;100.00;97949.34;6084431;29;20228;-67
2022/10/16 00:13:22;;;;;;;233.57;101.53;;;;;;;8.77;100.00;97937.25;6084969;29;20231;-67
2022/10/16 00:16:25;;;;;;;86.90;64.93;;;;;;;8.74;100.00;97938.28;6069270;29;20297;-66
2022/10/16 00:19:28;;;;;;;36.97;25.73;;;;;;;8.75;100.00;97934.72;6084314;29;20232;-66
2022/10/16 00:22:31;;;;;;;25.43;18.33;;;;;;;8.77;100.00;97938.09;6074573;29;20290;-67
2022/10/16 00:25:33;;;;;;;20.97;16.37;;;;;;;8.73;100.00;97939.25;6079093;29;20231;-68
2022/10/16 00:28:35;;;;;;;21.43;15.97;;;;;;;8.72;100.00;97934.06;6069154;29;20232;-67
2022/10/16 00:31:37;;;;;;;27.73;15.93;;;;;;;8.67;100.00;97944.94;6082257;29;20335;-68
2022/10/16 00:34:39;;;;;;;21.27;15.83;;;;;;;8.68;100.00;97946.63;6083764;29;20735;-68
2022/10/16 00:37:41;;;;;;;20.93;16.20;;;;;;;8.65;100.00;97940.72;6086218;29;20281;-68
2022/10/16 00:40:43;;;;;;;19.47;15.07;;;;;;;8.65;100.00;97949.44;6085117;29;20234;-67
2022/10/16 00:43:51;;;;;;;21.87;13.40;;;;;;;8.65;100.00;97944.19;6086985;29;20232;-67
2022/10/16 00:46:54;;;;;;;19.03;13.63;;;;;;;8.68;100.00;97951.03;6085201;29;20278;-67
2022/10/16 00:50:10;;;;;;;20.27;13.97;;;;;;;8.71;100.00;97951.66;6086235;29;20224;-67
2022/10/16 00:53:12;;;;;;;20.83;14.13;;;;;;;8.75;100.00;97955.78;6076641;29;20734;-67
2022/10/16 00:56:14;;;;;;;19.20;13.77;;;;;;;8.77;100.00;97960.94;6074205;29;20229;-68
2022/10/16 00:59:28;;;;;;;20.90;14.27;;;;;;;8.80;100.00;97948.38;6076969;29;20236;-67
2022/10/16 01:02:29;;;;;;;20.30;13.37;;;;;;;8.81;100.00;97951.88;6058005;29;20736;-67
2022/10/16 01:05:48;;;;;;;18.57;13.90;;;;;;;8.83;100.00;97950.81;6055382;29;20263;-67
2022/10/16 01:09:07;;;;;;;24.30;16.03;;;;;;;8.87;100.00;97951.47;6060715;29;20264;-67
2022/10/16 01:12:21;;;;;;;19.97;14.77;;;;;;;8.91;100.00;97944.16;6061121;29;20224;-67
2022/10/16 01:15:42;;;;;;;16.93;12.93;;;;;;;8.91;100.00;97947.66;6060257;29;20304;-67
2022/10/16 01:18:57;;;;;;;19.37;14.33;;;;;;;8.91;100.00;97946.81;6058841;29;20259;-68
2022/10/16 01:22:01;;;;;;;22.27;14.17;;;;;;;8.91;100.00;97954.69;6054455;29;20225;-68
2022/10/16 01:25:09;;;;;;;15.03;12.37;;;;;;;8.89;100.00;97945.13;6070558;29;20250;-68
2022/10/16 01:28:13;;;;;;;17.40;13.10;;;;;;;8.89;100.00;97952.16;6071769;29;20240;-68
2022/10/16 01:31:18;;;;;;;13.97;11.57;;;;;;;8.90;100.00;97943.34;6060634;29;20604;-67
2022/10/16 01:34:39;;;;;;;12.63;11.13;;;;;;;8.87;100.00;97944.41;6044590;29;20315;-68
2022/10/16 01:37:49;;;;;;;16.50;12.63;;;;;;;8.84;100.00;97946.41;6054268;29;20232;-67
2022/10/16 01:40:57;;;;;;;14.90;12.33;;;;;;;8.79;100.00;97944.06;6077102;29;20233;-68
2022/10/16 01:44:08;;;;;;;16.20;11.13;;;;;;;8.78;100.00;97942.38;6058973;29;20383;-67
2022/10/16 01:47:12;;;;;;;16.70;12.00;;;;;;;8.80;100.00;97953.66;6058473;29;20237;-68
2022/10/16 01:50:18;;;;;;;15.57;11.60;;;;;;;8.83;100.00;97952.59;6057976;29;20249;-68
2022/10/16 01:53:22;;;;;;;15.50;12.00;;;;;;;8.86;100.00;97957.66;6059288;29;20228;-68
2022/10/16 01:56:25;;;;;;;13.97;11.47;;;;;;;8.90;100.00;97959.13;6079688;29;20327;-67
2022/10/16 01:59:31;;;;;;;14.50;11.63;;;;;;;8.94;100.00;97965.03;6086069;29;20367;-68
2022/10/16 02:02:34;;;;;;;17.17;13.10;;;;;;;8.98;100.00;97962.09;6067154;29;20724;-68
2022/10/16 02:05:46;;;;;;;21.13;13.67;;;;;;;9.03;100.00;97959.13;6084664;29;20230;-68
2022/10/16 02:08:48;;;;;;;18.70;13.33;;;;;;;9.03;100.00;97953.84;6082010;29;20260;-68
2022/10/16 02:11:54;;;;;;;16.87;12.47;;;;;;;9.02;100.00;97947.75;6081424;29;20234;-68
2022/10/16 02:14:57;;;;;;;20.03;13.77;;;;;;;9.01;100.00;97955.75;6087092;29;20243;-67
2022/10/16 02:17:59;;;;;;;16.53;12.27;;;;;;;9.03;100.00;97951.22;6086581;29;20366;-68
2022/10/16 02:21:16;;;;;;;18.17;12.67;;;;;;;9.07;100.00;97957.97;6086790;29;20236;-68
2022/10/16 02:24:32;;;;;;;18.87;13.00;;;;;;;9.10;100.00;97958.59;6083233;29;20345;-68
2022/10/16 02:28:12;;;;;;;18.53;14.23;;;;;;;9.16;100.00;97965.22;6088276;29;20243;-69
2022/10/16 02:31:22;;;;;;;18.47;13.00;;;;;;;9.16;100.00;97967.84;6087563;29;20717;-68
2022/10/16 02:34:27;;;;;;;18.73;13.30;;;;;;;9.16;100.00;97955.53;6085838;29;20250;-69
2022/10/16 02:37:30;;;;;;;18.83;12.53;;;;;;;9.19;100.00;97965.00;6087713;29;20233;-67
2022/10/16 02:40:33;;;;;;;16.20;12.20;;;;;;;9.21;100.00;97960.47;6071217;29;20233;-68
2022/10/16 02:43:35;;;;;;;18.00;13.20;;;;;;;9.25;100.00;97969.84;6088780;29;20237;-68
2022/10/16 02:46:37;;;;;;;16.00;12.80;;;;;;;9.29;100.00;97973.94;6069659;29;20287;-68
2022/10/16 02:49:39;;;;;;;16.60;12.43;;;;;;;9.29;100.00;97975.72;6088181;29;20237;-68
2022/10/16 02:52:41;;;;;;;13.57;11.30;;;;;;;9.26;100.00;97968.91;6087405;29;20244;-67
2022/10/16 02:55:43;;;;;;;14.90;11.77;;;;;;;9.26;100.00;97968.91;6069886;29;21011;-68
2022/10/16 02:58:45;;;;;;;14.37;11.23;;;;;;;9.22;100.00;97968.25;6069756;29;20224;-67
2022/10/16 03:01:47;;;;;;;14.00;11.47;;;;;;;9.23;100.00;97959.41;6070065;29;20249;-68
2022/10/16 03:04:49;;;;;;;14.47;10.67;;;;;;;9.20;100.00;97959.63;6070611;29;20232;-68
2022/10/16 03:07:52;;;;;;;14.37;11.20;;;;;;;9.18;100.00;97961.50;6085211;29;20229;-67
2022/10/16 03:10:54;;;;;;;16.47;11.20;;;;;;;9.12;100.00;97961.97;6088091;29;20263;-68
2022/10/16 03:13:56;;;;;;;14.97;11.10;;;;;;;9.14;100.00;97978.50;6088897;29;20241;-69
2022/10/16 03:16:58;;;;;;;13.20;10.87;;;;;;;9.12;100.00;97975.13;6088247;29;22273;-68
2022/10/16 03:20:00;;;;;;;17.27;12.00;;;;;;;9.10;100.00;97966.47;6088940;29;20270;-68
2022/10/16 03:23:03;;;;;;;12.77;10.50;;;;;;;9.05;100.00;97973.88;6088595;29;20316;-68
2022/10/16 03:26:05;;;;;;;12.90;10.83;;;;;;;9.04;100.00;97979.25;6084311;29;20236;-68
2022/10/16 03:29:07;;;;;;;14.70;12.13;;;;;;;8.99;100.00;97981.34;6071787;29;20265;-68
2022/10/16 03:32:09;;;;;;;13.53;10.77;;;;;;;8.92;100.00;97986.19;6068614;29;20585;-68
2022/10/16 03:35:11;;;;;;;14.40;10.03;;;;;;;8.84;100.00;97991.97;6087260;29;20737;-69
2022/10/16 03:38:12;;;;;;;12.77;10.07;;;;;;;8.80;100.00;97993.13;6086052;29;20233;-68
2022/10/16 03:41:14;;;;;;;12.63;9.10;;;;;;;8.75;100.00;98000.50;6088729;29;20237;-68
2022/10/16 03:44:16;;;;;;;13.37;8.77;;;;;;;8.70;100.00;97991.22;6088106;29;20240;-69
2022/10/16 03:47:21;;;;;;;11.63;9.07;;;;;;;8.66;100.00;97995.88;6080040;29;20232;-69
2022/10/16 03:50:23;;;;;;;10.60;8.43;;;;;;;8.65;100.00;97996.81;6077248;29;20241;-68
2022/10/16 03:53:25;;;;;;;10.13;7.93;;;;;;;8.63;100.00;98017.13;6087730;29;20236;-68
2022/10/16 03:56:27;;;;;;;10.87;8.40;;;;;;;8.63;100.00;98017.13;6064028;29;20244;-68
2022/10/16 03:59:29;;;;;;;9.00;7.83;;;;;;;8.65;100.00;98017.84;6063016;29;20234;-68
2022/10/16 04:02:31;;;;;;;8.67;6.90;;;;;;;8.66;100.00;98027.44;6064380;29;20949;-68
2022/10/16 04:05:33;;;;;;;9.80;7.93;;;;;;;8.68;100.00;98020.28;6065437;29;20241;-68
2022/10/16 04:08:36;;;;;;;11.70;9.23;;;;;;;8.74;100.00;98025.13;6060870;29;20243;-68
2022/10/16 04:11:38;;;;;;;10.30;7.27;;;;;;;8.81;100.00;98031.66;6063892;29;20337;-67
2022/10/16 04:14:40;;;;;;;8.83;7.10;;;;;;;8.82;100.00;98022.81;6057903;29;20232;-68
2022/10/16 04:17:42;;;;;;;8.73;7.00;;;;;;;8.84;100.00;98018.28;6073626;29;20238;-68
2022/10/16 04:20:44;;;;;;;10.10;6.20;;;;;;;8.84;100.00;98018.28;6061264;29;20383;-69
2022/10/16 04:23:46;;;;;;;9.40;7.90;;;;;;;8.87;100.00;98031.25;6053329;29;20235;-67
2022/10/16 04:26:49;;;;;;;8.57;7.17;;;;;;;8.92;100.00;98028.31;6077221;29;20267;-68
2022/10/16 04:29:51;;;;;;;7.87;6.67;;;;;;;8.93;100.00;98023.88;6075434;29;20235;-67
2022/10/16 04:32:53;;;;;;;8.60;7.13;;;;;;;8.93;100.00;98013.34;6055740;29;20233;-68
2022/10/16 04:36:03;;;;;;;10.73;7.57;;;;;;;8.94;100.00;98015.88;6059871;29;20234;-68
2022/10/16 04:39:05;;;;;;;8.30;7.23;;;;;;;8.92;100.00;98014.28;6059515;29;20234;-68
2022/10/16 04:42:07;;;;;;;8.40;6.83;;;;;;;8.93;100.00;98019.47;6057215;29;20227;-68
2022/10/16 04:45:09;;;;;;;8.43;6.30;;;;;;;8.90;100.00;98022.28;6056327;29;20215;-68
2022/10/16 04:48:18;;;;;;;9.47;7.00;;;;;;;8.87;100.00;98031.25;6057019;29;20232;-68
2022/10/16 04:51:20;;;;;;;7.87;6.50;;;;;;;8.85;100.00;98029.66;6063274;29;20590;-67
2022/10/16 04:54:22;;;;;;;10.27;6.10;;;;;;;8.81;100.00;98028.19;6067325;29;20243;-68
2022/10/16 04:57:24;;;;;;;7.60;6.27;;;;;;;8.78;100.00;98031.84;6084861;29;20592;-68
2022/10/16 05:00:27;;;;;;;7.43;6.17;;;;;;;8.74;100.00;98030.41;6080505;29;20240;-70
2022/10/16 05:03:29;;;;;;;12.03;5.90;;;;;;;8.73;100.00;98030.50;6082018;29;20224;-68
2022/10/16 05:06:38;;;;;;;8.27;5.73;;;;;;;8.75;100.00;98036.50;6064200;29;20223;-68
2022/10/16 05:09:40;;;;;;;6.43;5.57;;;;;;;8.73;100.00;98039.22;6082992;29;20234;-68
2022/10/16 05:12:42;;;;;;;6.87;5.37;;;;;;;8.76;100.00;98038.19;6085805;29;20241;-68
2022/10/16 05:15:48;;;;;;;5.43;4.90;;;;;;;8.77;100.00;98047.78;6068978;29;20236;-67
2022/10/16 05:18:52;;;;;;;6.27;5.33;;;;;;;8.80;100.00;98042.28;6084454;29;20228;-68
2022/10/16 05:22:10;;;;;;;6.83;5.70;;;;;;;8.80;100.00;98045.75;6082466;29;20244;-68
2022/10/16 05:25:12;;;;;;;6.77;5.33;;;;;;;8.77;100.00;98061.78;6084722;29;20609;-68
2022/10/16 05:28:14;;;;;;;5.77;4.50;;;;;;;8.74;100.00;98054.06;6083036;29;20236;-67
2022/10/16 05:31:16;;;;;;;5.70;4.33;;;;;;;8.73;100.00;98062.06;6081061;29;20771;-67
2022/10/16 05:34:19;;;;;;;7.47;4.90;;;;;;;8.72;100.00;98063.00;6083966;29;20577;-67
2022/10/16 05:37:21;;;;;;;5.80;4.53;;;;;;;8.72;100.00;98068.28;6060164;29;20235;-67
2022/10/16 05:40:23;;;;;;;5.03;4.53;;;;;;;8.72;100.00;98069.13;6067371;29;20635;-67
2022/10/16 05:43:27;;;;;;;5.50;4.97;;;;;;;8.75;100.00;98078.59;6084665;29;20258;-67
2022/10/16 05:46:29;;;;;;;5.67;4.60;;;;;;;8.73;100.00;98083.97;6080392;29;20227;-68
2022/10/16 05:49:31;;;;;;;7.90;6.00;;;;;;;8.72;100.00;98078.78;6071284;29;20492;-67
2022/10/16 05:52:36;;;;;;;5.77;5.13;;;;;;;8.72;100.00;98086.69;6090244;29;20296;-67
2022/10/16 05:55:39;;;;;;;6.57;5.13;;;;;;;8.71;100.00;98082.38;6057528;29;20239;-67
2022/10/16 05:58:44;;;;;;;8.47;4.97;;;;;;;8.72;100.00;98087.53;6086739;29;20238;-68
2022/10/16 06:01:46;;;;;;;7.37;5.40;;;;;;;8.78;100.00;98099.47;6088124;29;20338;-67
2022/10/16 06:04:48;;;;;;;7.50;5.60;;;;;;;8.81;100.00;98105.34;6081055;29;20228;-67
2022/10/16 06:07:50;;;;;;;6.97;5.20;;;;;;;8.80;100.00;98105.44;6087515;29;20231;-67
2022/10/16 06:11:06;;;;;;;8.73;6.10;;;;;;;8.82;100.00;98106.19;6086696;29;20749;-68
2022/10/16 06:14:09;;;;;;;6.63;5.67;;;;;;;8.80;100.00;98116.81;6090741;29;20232;-68
2022/10/16 06:17:11;;;;;;;9.87;5.73;;;;;;;8.79;100.00;98112.50;6088667;29;20310;-67
2022/10/16 06:20:13;;;;;;;6.53;5.33;;;;;;;8.78;100.00;98113.44;6086690;29;20267;-68
2022/10/16 06:23:14;;;;;;;9.10;5.53;;;;;;;8.81;100.00;98122.91;6089835;29;20244;-67
2022/10/16 06:26:20;;;;;;;6.10;4.93;;;;;;;8.82;100.00;98130.72;6088620;29;20263;-67
2022/10/16 06:29:22;;;;;;;6.33;5.10;;;;;;;8.86;100.00;98134.84;6084452;29;20292;-67
2022/10/16 06:32:24;;;;;;;5.83;5.07;;;;;;;8.90;100.00;98140.72;6080900;29;20605;-67
2022/10/16 06:35:26;;;;;;;5.63;4.57;;;;;;;8.91;100.00;98137.16;6077995;29;20696;-67
2022/10/16 06:38:28;;;;;;;6.83;5.00;;;;;;;8.93;100.00;98142.31;6082859;29;20245;-68
2022/10/16 06:41:30;;;;;;;8.77;5.80;;;;;;;8.97;100.00;98139.41;6084901;29;20241;-67
2022/10/16 06:44:39;;;;;;;7.43;6.07;;;;;;;9.02;100.00;98141.72;6085641;29;20314;-68
2022/10/16 06:47:41;;;;;;;6.80;5.13;;;;;;;9.05;100.00;98142.38;6079681;29;20233;-70
2022/10/16 06:50:43;;;;;;;6.87;5.47;;;;;;;9.13;100.00;98144.47;6084319;29;20342;-66
2022/10/16 06:53:48;;;;;;;7.60;4.93;;;;;;;9.28;100.00;98154.00;6077071;29;20744;-69
2022/10/16 06:57:06;;;;;;;6.63;5.23;;;;;;;9.51;100.00;98160.31;6084935;29;20308;-67
2022/10/16 07:00:08;;;;;;;6.07;5.10;;;;;;;9.72;100.00;98158.84;6086385;29;20422;-67
2022/10/16 07:03:10;;;;;;;7.87;5.37;;;;;;;9.91;100.00;98167.16;6070756;29;20321;-67
2022/10/16 07:06:18;;;;;;;6.50;5.40;;;;;;;10.09;100.00;98166.81;6086208;29;20230;-68
2022/10/16 07:09:20;;;;;;;7.43;6.20;;;;;;;10.23;100.00;98174.63;6082149;29;20238;-67
2022/10/16 07:12:22;;;;;;;8.37;5.90;;;;;;;10.33;100.00;98180.94;6072700;29;20239;-67
2022/10/16 07:15:26;;;;;;;7.83;7.03;;;;;;;10.43;100.00;98176.69;6075607;29;20645;-67
2022/10/16 07:18:32;;;;;;;10.87;9.10;;;;;;;10.55;100.00;98177.63;6088249;29;20244;-66
2022/10/16 07:21:37;;;;;;;12.70;10.53;;;;;;;10.62;100.00;98178.84;6082552;29;20318;-67
2022/10/16 07:24:39;;;;;;;12.53;10.93;;;;;;;10.73;100.00;98178.91;6051651;29;20310;-66
2022/10/16 07:27:41;;;;;;;14.53;12.30;;;;;;;10.86;100.00;98185.00;6077797;29;20912;-66
2022/10/16 07:30:43;;;;;;;16.97;14.30;;;;;;;10.98;100.00;98184.06;6089735;29;20237;-66
2022/10/16 07:33:47;;;;;;;54.33;17.10;;;;;;;11.04;100.00;98183.63;6076506;29;20233;-66
2022/10/16 07:36:50;;;;;;;14.23;12.83;;;;;;;10.96;100.00;98188.66;6080065;29;20218;-64
2022/10/16 07:39:52;;;;;;;13.23;11.93;;;;;;;11.02;100.00;98189.97;6084168;29;20231;-66
2022/10/16 07:42:54;;;;;;;16.43;13.90;;;;;;;11.11;100.00;98194.56;6080288;29;20227;-69
2022/10/16 07:45:56;;;;;;;15.93;14.37;;;;;;;11.21;100.00;98192.09;6080793;29;20746;-68
2022/10/16 07:49:03;;;;;;;20.37;15.50;;;;;;;11.26;100.00;98193.44;6086313;29;20229;-66
2022/10/16 07:52:05;;;;;;;18.47;16.53;;;;;;;11.32;100.00;98195.63;6084926;29;20679;-65
2022/10/16 07:55:08;;;;;;;19.30;17.13;;;;;;;11.42;100.00;98201.91;6079068;29;20235;-72
2022/10/16 07:58:10;;;;;;;21.63;17.87;;;;;;;11.52;100.00;98207.34;6080091;29;20238;-65
2022/10/16 08:01:14;;;;;;;20.23;16.80;;;;;;;11.62;100.00;98210.13;6086961;29;20656;-66
2022/10/16 08:04:16;;;;;;;26.13;18.40;;;;;;;11.68;100.00;98204.38;6068228;29;20253;-67
2022/10/16 08:07:18;;;;;;;22.40;18.73;;;;;;;11.76;100.00;98216.09;6076495;29;20328;-66
2022/10/16 08:10:22;;;;;;;29.03;19.47;;;;;;;11.89;100.00;98212.47;6077376;29;20241;-65
2022/10/16 08:13:26;;;;;;;25.50;18.47;;;;;;;11.86;100.00;98208.28;6063220;29;20723;-64
2022/10/16 08:16:28;;;;;;;22.17;18.67;;;;;;;11.80;100.00;98224.59;6064898;29;20246;-69
2022/10/16 08:19:34;;;;;;;20.70;18.67;;;;;;;11.96;100.00;98219.84;6048192;29;20707;-65
2022/10/16 08:22:36;;;;;;;26.53;21.50;;;;;;;12.09;100.00;98223.19;6073325;29;20737;-69
2022/10/16 08:25:38;;;;;;;22.30;20.00;;;;;;;12.20;100.00;98219.72;6080823;29;20242;-66
2022/10/16 08:28:40;;;;;;;22.60;19.07;;;;;;;12.36;100.00;98228.16;6065033;29;20310;-67
2022/10/16 08:31:42;;;;;;;22.50;20.07;;;;;;;12.45;100.00;98227.44;6077055;29;20231;-65
2022/10/16 08:34:44;;;;;;;22.50;19.70;;;;;;;12.56;100.00;98230.06;6066071;29;20696;-68
2022/10/16 08:37:47;;;;;;;23.93;21.43;;;;;;;12.63;100.00;98235.72;6083922;29;20383;-67
2022/10/16 08:40:49;;;;;;;23.70;20.67;;;;;;;12.64;100.00;98237.41;6082610;29;20234;-66
2022/10/16 08:44:16;;;;;;;42.00;24.10;;;;;;;12.63;100.00;98225.13;6081168;29;20246;-66
2022/10/16 08:47:26;;;;;;;31.23;22.13;;;;;;;12.61;100.00;98234.97;6082378;29;20719;-67
2022/10/16 08:50:31;;;;;;;31.83;24.50;;;;;;;12.72;100.00;98231.47;6083346;29;20232;-64
2022/10/16 08:53:44;;;;;;;24.63;22.10;;;;;;;12.84;100.00;98233.16;6084531;29;20235;-66
2022/10/16 08:56:46;;;;;;;26.67;23.10;;;;;;;12.98;100.00;98232.03;6081086;29;20254;-67
2022/10/16 08:59:49;;;;;;;25.30;22.67;;;;;;;-144.22;100.00;60274.75;6065687;29;20304;-67
2022/10/16 09:03:03;;;;;;;26.03;23.13;;;;;;;13.96;100.00;60274.75;6080245;29;20718;-67
2022/10/16 09:06:44;;;;;;;24.80;22.17;;;;;;;-144.22;100.00;60274.75;6079726;29;20247;-66
2022/10/16 09:10:12;;;;;;;24.33;21.83;;;;;;;-144.22;100.00;60274.75;6083963;29;20235;-68
2022/10/16 09:13:47;;;;;;;25.87;23.07;;;;;;;-144.22;100.00;60274.75;6078096;29;20242;-66
2022/10/16 09:16:57;;;;;;;26.37;23.57;;;;;;;15.25;100.00;60274.75;6083440;29;20715;-64
2022/10/16 09:20:30;;;;;;;25.27;22.70;;;;;;;-144.22;100.00;60274.75;6073555;29;20232;-65
2022/10/16 09:23:36;;;;;;;24.87;21.93;;;;;;;-144.22;100.00;60274.75;6080396;29;20930;-66
2022/10/16 09:26:38;;;;;;;23.03;20.60;;;;;;;-144.22;100.00;60274.75;6059918;29;20284;-65
2022/10/16 09:29:41;;;;;;;23.83;21.43;;;;;;;14.77;100.00;60274.75;6083375;29;20240;-64
2022/10/16 09:32:45;;;;;;;21.87;19.67;;;;;;;16.55;100.00;60274.75;6080995;29;20227;-66
2022/10/16 09:35:50;;;;;;;22.03;19.70;;;;;;;14.91;100.00;60274.75;6079973;29;20314;-65
2022/10/16 09:39:07;;;;;;;21.07;18.97;;;;;;;15.11;100.00;60274.75;6082341;29;20231;-65
2022/10/16 09:42:14;;;;;;;21.43;19.23;;;;;;;15.30;100.00;60274.75;6075494;29;20711;-68
2022/10/16 09:45:23;;;;;;;20.13;18.00;;;;;;;16.55;100.00;60274.75;6079503;29;20211;-66
2022/10/16 09:48:31;;;;;;;18.80;16.97;;;;;;;16.55;100.00;60274.75;6079442;29;20320;-66
2022/10/16 09:51:36;;;;;;;17.30;15.50;;;;;;;16.55;100.00;60274.75;6082808;29;20231;-66
2022/10/16 09:54:49;;;;;;;16.87;15.07;;;;;;;-144.22;100.00;60274.75;6080517;29;20264;-67
2022/10/16 09:57:53;;;;;;;16.87;15.30;;;;;;;-144.22;100.00;60274.75;6069206;29;20240;-65
2022/10/16 10:00:55;;;;;;;16.53;14.97;;;;;;;-144.22;100.00;60274.75;6078276;29;20232;-68
2022/10/16 10:04:02;;;;;;;16.57;14.97;;;;;;;-144.22;100.00;60274.75;6078639;29;20235;-67
2022/10/16 10:07:04;;;;;;;18.43;16.60;;;;;;;-144.22;100.00;60274.75;6077754;29;20244;-70
2022/10/16 10:10:21;;;;;;;17.53;15.83;;;;;;;-144.22;100.00;60274.75;6082205;29;20694;-70
2022/10/16 10:13:25;;;;;;;18.37;16.50;;;;;;;-144.22;100.00;60274.75;6063980;29;20252;-70
2022/10/16 10:16:27;;;;;;;17.63;15.93;;;;;;;-144.22;100.00;60274.75;6063496;29;20227;-72
2022/10/16 10:19:29;;;;;;;17.37;15.67;;;;;;;-144.22;100.00;60274.75;6077687;29;20755;-72
2022/10/16 10:22:36;;;;;;;20.73;18.63;;;;;;;-144.22;100.00;60274.75;6083275;29;20255;-69
2022/10/16 10:25:44;;;;;;;21.73;19.63;;;;;;;-144.22;100.00;60274.75;6083679;29;20235;-71
2022/10/16 10:28:56;;;;;;;23.73;21.33;;;;;;;16.83;100.00;60274.75;6068737;29;20240;-71
2022/10/16 10:32:08;;;;;;;21.63;19.43;;;;;;;-144.22;100.00;60274.75;6082565;29;20240;-70
2022/10/16 10:35:24;;;;;;;21.47;19.27;;;;;;;-144.22;100.00;60274.75;6063373;29;20236;-71
2022/10/16 10:38:39;;;;;;;23.20;20.80;;;;;;;-144.22;100.00;60274.75;6062876;29;20228;-71
2022/10/16 10:41:50;;;;;;;22.90;20.67;;;;;;;-144.22;100.00;60274.75;6084393;29;20236;-71
2022/10/16 10:45:11;;;;;;;21.23;19.07;;;;;;;17.23;100.00;60274.75;6077185;29;20286;-72
2022/10/16 10:48:51;;;;;;;19.37;17.43;;;;;;;-144.22;100.00;60274.75;6083952;29;20243;-71
2022/10/16 10:52:28;;;;;;;22.37;20.07;;;;;;;-144.22;100.00;60274.75;6070516;29;20239;-72
2022/10/16 10:55:46;;;;;;;23.53;21.13;;;;;;;17.50;100.00;60274.75;6075347;29;20802;-74
2022/10/16 10:59:12;;;;;;;26.70;24.00;;;;;;;-144.22;100.00;60274.75;6072002;29;20732;-73
2022/10/16 11:02:40;;;;;;;24.40;21.90;;;;;;;16.55;100.00;60274.75;6059931;29;20224;-71
2022/10/16 11:05:47;;;;;;;27.00;23.50;;;;;;;-144.22;100.00;60274.75;6082214;29;20228;-71
2022/10/16 11:08:57;;;;;;;27.13;24.23;;;;;;;16.55;100.00;60274.75;6081897;29;20224;-71
2022/10/16 11:12:12;;;;;;;29.17;24.67;;;;;;;-144.22;100.00;60274.75;6066601;29;20610;-73
2022/10/16 11:15:20;;;;;;;28.33;24.97;;;;;;;16.55;100.00;60274.75;6072486;29;20238;-71
2022/10/16 11:18:47;;;;;;;28.50;25.40;;;;;;;16.55;100.00;60274.75;6080270;29;20652;-72
2022/10/16 11:21:59;;;;;;;30.03;26.83;;;;;;;16.55;100.00;60274.75;6067554;29;20713;-72
2022/10/16 11:25:26;;;;;;;30.63;26.37;;;;;;;-144.22;100.00;60274.75;6066996;29;20224;-72
2022/10/16 11:28:43;;;;;;;33.43;27.13;;;;;;;-144.22;100.00;60274.75;6057496;29;20235;-68
2022/10/16 11:31:52;;;;;;;32.37;27.43;;;;;;;16.65;100.00;60274.75;6075291;29;20235;-73
2022/10/16 11:35:04;;;;;;;34.73;28.23;;;;;;;-144.22;100.00;60274.75;6047285;29;20580;-65
2022/10/16 11:38:17;;;;;;;31.47;27.63;;;;;;;16.55;100.00;60274.75;6086057;29;20232;-69
2022/10/16 11:41:24;;;;;;;30.17;26.57;;;;;;;-144.22;100.00;60274.75;6079507;29;20228;-68
2022/10/16 11:44:38;;;;;;;32.53;28.07;;;;;;;-144.22;100.00;60274.75;6075829;29;20607;-70
2022/10/16 11:47:48;;;;;;;32.13;26.27;;;;;;;-144.22;100.00;60274.75;6079027;29;20769;-68
2022/10/16 11:51:30;;;;;;;30.07;26.50;;;;;;;-144.22;100.00;60274.75;6084025;29;20243;-68
2022/10/16 11:54:43;;;;;;;26.80;23.90;;;;;;;188.01;100.00;60274.75;6083697;29;20249;-69
2022/10/16 11:58:02;;;;;;;26.97;24.00;;;;;;;-144.22;100.00;60274.75;6062726;29;20236;-68
2022/10/16 12:01:17;;;;;;;27.57;23.17;;;;;;;-144.22;100.00;60274.75;6085636;29;20224;-68
2022/10/16 12:04:45;;;;;;;24.67;21.10;;;;;;;-144.22;100.00;60274.75;6086328;29;20611;-68
2022/10/16 12:08:09;;;;;;;25.03;22.37;;;;;;;18.93;100.00;60274.75;6080098;29;20327;-69
2022/10/16 12:11:33;;;;;;;24.17;21.53;;;;;;;-144.22;100.00;60274.75;6071523;29;20584;-68
2022/10/16 12:14:39;;;;;;;26.83;22.93;;;;;;;-144.22;100.00;60274.75;6087311;29;20238;-67
2022/10/16 12:18:01;;;;;;;23.33;20.83;;;;;;;-144.22;100.00;60274.75;6086517;29;20314;-69
2022/10/16 12:21:07;;;;;;;21.90;19.60;;;;;;;-144.22;100.00;60274.75;6086637;29;20680;-69
2022/10/16 12:24:32;;;;;;;25.70;22.73;;;;;;;-144.22;100.00;60274.75;6088702;29;20232;-68
2022/10/16 12:27:35;;;;;;;22.10;19.83;;;;;;;-144.22;100.00;60274.75;6086544;29;20582;-68
2022/10/16 12:30:37;;;;;;;22.70;20.20;;;;;;;-144.22;100.00;60274.75;6086260;29;20242;-69
2022/10/16 12:33:42;;;;;;;24.10;21.50;;;;;;;-144.22;100.00;60274.75;6086236;29;20582;-68
2022/10/16 12:36:44;;;;;;;31.57;26.13;;;;;;;-144.22;100.00;60274.75;6086333;29;20235;-69
2022/10/16 12:39:48;;;;;;;29.70;26.63;;;;;;;-144.22;100.00;60274.75;6070303;29;20235;-68
2022/10/16 12:42:50;;;;;;;31.40;28.13;;;;;;;-144.22;100.00;60274.75;6086687;29;20319;-68
2022/10/16 12:46:10;;;;;;;33.67;30.23;;;;;;;22.59;100.00;60274.75;6086806;29;20310;-69
2022/10/16 12:49:11;;;;;;;31.83;28.43;;;;;;;-144.22;100.00;60274.75;6086500;29;20228;-69
2022/10/16 12:52:35;;;;;;;30.60;27.43;;;;;;;-144.22;100.00;60274.75;6087506;29;20244;-69
2022/10/16 12:55:52;;;;;;;29.80;26.70;;;;;;;-144.22;100.00;60274.75;6085750;29;20232;-68
2022/10/16 12:59:19;;;;;;;30.80;27.70;;;;;;;-144.22;100.00;60274.75;6068639;29;20336;-68
2022/10/16 13:03:04;;;;;;;33.93;30.40;;;;;;;-144.22;100.00;60274.75;6084421;29;20235;-70
2022/10/16 13:06:34;;;;;;;31.43;28.13;;;;;;;-144.22;100.00;60274.75;6084969;29;20331;-68
2022/10/16 13:10:05;;;;;;;32.90;28.10;;;;;;;29.53;100.00;60274.75;6085822;29;20220;-68
2022/10/16 13:13:29;;;;;;;28.90;25.67;;;;;;;-144.22;100.00;60274.75;6059022;29;20239;-69
2022/10/16 13:16:31;;;;;;;31.03;25.73;;;;;;;-144.22;100.00;60274.75;6069436;29;20238;-69
2022/10/16 13:20:14;;;;;;;30.17;26.93;;;;;;;-144.22;100.00;60274.75;6085340;29;20322;-68
2022/10/16 13:23:33;;;;;;;30.67;27.30;;;;;;;-144.22;100.00;60274.75;6085659;29;20242;-68
2022/10/16 13:26:59;;;;;;;33.10;28.90;;;;;;;30.83;100.00;60274.75;6085562;29;20598;-68
2022/10/16 13:30:18;;;;;;;29.43;26.43;;;;;;;-144.22;100.00;60274.75;6088267;29;20700;-69
2022/10/16 13:33:45;;;;;;;29.90;26.70;;;;;;;30.83;100.00;60274.75;6085933;29;20723;-68
2022/10/16 13:36:52;;;;;;;34.13;29.03;;;;;;;-144.22;100.00;60274.75;6068287;29;20244;-69
2022/10/16 13:40:23;;;;;;;32.67;29.17;;;;;;;-144.22;100.00;60274.75;6085632;29;20601;-69
2022/10/16 13:43:34;;;;;;;31.60;24.77;;;;;;;-144.22;100.00;60274.75;6053663;29;20437;-68
2022/10/16 13:46:36;;;;;;;28.57;25.67;;;;;;;-144.22;100.00;60274.75;6068400;29;20235;-68
2022/10/16 13:49:37;;;;;;;30.73;27.50;;;;;;;-144.22;100.00;60274.75;6086112;29;21097;-69
2022/10/16 13:52:41;;;;;;;27.70;24.67;;;;;;;-144.22;100.00;60274.75;6067979;29;20698;-69
2022/10/16 13:55:43;;;;;;;30.50;27.30;;;;;;;20.64;65.14;98274.97;6085304;29;20236;-69
2022/10/16 13:58:47;;;;;;;34.17;28.43;;;;;;;19.99;67.27;98274.19;6084723;29;20254;-69
2022/10/16 14:01:53;;;;;;;30.80;27.13;;;;;;;19.47;69.65;98275.28;6075326;29;20280;-69
2022/10/16 14:04:57;;;;;;;33.37;29.33;;;;;;;19.16;70.89;98275.03;6077462;29;20243;-69
2022/10/16 14:08:00;;;;;;;31.23;27.90;;;;;;;18.97;72.26;98275.28;6087818;29;20231;-69
2022/10/16 14:11:02;;;;;;;35.67;26.53;;;;;;;18.81;73.80;98272.56;6090612;29;20242;-68
2022/10/16 14:14:05;;;;;;;33.20;29.07;;;;;;;18.62;74.54;98278.16;6089836;29;20355;-68
2022/10/16 14:17:14;;;;;;;31.47;28.17;;;;;;;18.35;75.63;98284.50;6072886;29;20234;-68
2022/10/16 14:20:16;;;;;;;33.30;28.77;;;;;;;18.10;77.54;98278.13;6063441;29;20623;-69